sensor_id;sensor_type;location;lat;lon;timestamp;pressure;altitude;pressure_sealevel;temperature;humidity
57248;BME280;55809;46.618;10.764;2024-01-30T00:01:23;94701.25;;;1.25;100.00
57248;BME280;55809;46.618;10.764;2024-01-30T00:03:50;94701.66;;;1.32;100.00
57248;BME280;55809;46.618;10.764;2024-01-30T00:06:18;94622.38;;;0.79;100.00
57248;BME280;55809;46.618;10.764;2024-01-30T00:08:47;94705.47;;;1.40;100.00
57248;BME280;55809;46.618;10.764;2024-01-30T00:11:15;94652.69;;;1.06;100.00
57248;BME280;55809;46.618;10.764;2024-01-30T00:13:43;94705.28;;;1.36;100.00
57248;BME280;55809;46.618;10.764;2024-01-30T00:16:20;94705.56;;;1.35;100.00
57248;BME280;55809;46.618;10.764;2024-01-30T00:18:46;94679.47;;;1.09;100.00
57248;BME280;55809;46.618;10.764;2024-01-30T00:21:13;94702.50;;;1.28;100.00
57248;BME280;55809;46.618;10.764;2024-01-30T00:23:40;94710.03;;;1.26;100.00
57248;BME280;55809;46.618;10.764;2024-01-30T00:26:09;94706.97;;;1.32;100.00
57248;BME280;55809;46.618;10.764;2024-01-30T00:28:37;94711.59;;;1.27;100.00
57248;BME280;55809;46.618;10.764;2024-01-30T00:31:04;94705.56;;;1.21;100.00
57248;BME280;55809;46.618;10.764;2024-01-30T00:33:31;94702.44;;;1.19;100.00
57248;BME280;55809;46.618;10.764;2024-01-30T00:35:58;94634.94;;;0.74;100.00
57248;BME280;55809;46.618;10.764;2024-01-30T00:38:24;94700.16;;;1.26;100.00
57248;BME280;55809;46.618;10.764;2024-01-30T00:40:51;94648.44;;;0.91;100.00
57248;BME280;55809;46.618;10.764;2024-01-30T00:43:20;94709.41;;;1.43;100.00
57248;BME280;55809;46.618;10.764;2024-01-30T00:45:46;94704.19;;;1.37;100.00
57248;BME280;55809;46.618;10.764;2024-01-30T00:48:13;94703.81;;;1.30;100.00
57248;BME280;55809;46.618;10.764;2024-01-30T00:50:40;94709.00;;;1.22;100.00
57248;BME280;55809;46.618;10.764;2024-01-30T00:53:07;94705.75;;;1.25;100.00
57248;BME280;55809;46.618;10.764;2024-01-30T00:55:34;94707.75;;;1.33;100.00
57248;BME280;55809;46.618;10.764;2024-01-30T00:58:01;94701.66;;;1.32;100.00
57248;BME280;55809;46.618;10.764;2024-01-30T01:00:30;94704.19;;;1.10;100.00
57248;BME280;55809;46.618;10.764;2024-01-30T01:02:57;94706.53;;;0.98;100.00
57248;BME280;55809;46.618;10.764;2024-01-30T01:05:24;94707.13;;;0.94;100.00
57248;BME280;55809;46.618;10.764;2024-01-30T01:07:51;94705.75;;;0.97;100.00
57248;BME280;55809;46.618;10.764;2024-01-30T01:10:18;94617.78;;;0.38;100.00
57248;BME280;55809;46.618;10.764;2024-01-30T01:12:46;94705.44;;;0.99;100.00
57248;BME280;55809;46.618;10.764;2024-01-30T01:15:13;94706.91;;;0.91;100.00
57248;BME280;55809;46.618;10.764;2024-01-30T01:17:41;94676.38;;;0.61;100.00
57248;BME280;55809;46.618;10.764;2024-01-30T01:20:08;94704.38;;;0.86;100.00
57248;BME280;55809;46.618;10.764;2024-01-30T01:22:36;94706.06;;;0.96;100.00
57248;BME280;55809;46.618;10.764;2024-01-30T01:25:04;94704.47;;;0.94;100.00
57248;BME280;55809;46.618;10.764;2024-01-30T01:27:32;94706.53;;;0.98;100.00
57248;BME280;55809;46.618;10.764;2024-01-30T01:30:00;94707.53;;;1.02;100.00
57248;BME280;55809;46.618;10.764;2024-01-30T01:32:27;94704.66;;;0.98;100.00
57248;BME280;55809;46.618;10.764;2024-01-30T01:34:56;94708.81;;;1.04;100.00
57248;BME280;55809;46.618;10.764;2024-01-30T01:37:22;94709.13;;;1.16;100.00
57248;BME280;55809;46.618;10.764;2024-01-30T01:39:52;94701.44;;;1.29;100.00
57248;BME280;55809;46.618;10.764;2024-01-30T01:42:19;94704.50;;;1.22;100.00
57248;BME280;55809;46.618;10.764;2024-01-30T01:44:45;94701.81;;;1.08;100.00
57248;BME280;55809;46.618;10.764;2024-01-30T01:47:12;94681.41;;;0.76;100.00
57248;BME280;55809;46.618;10.764;2024-01-30T01:49:39;94683.25;;;0.76;100.00
57248;BME280;55809;46.618;10.764;2024-01-30T01:52:08;94704.06;;;0.87;100.00
57248;BME280;55809;46.618;10.764;2024-01-30T01:54:35;94696.09;;;1.01;100.00
57248;BME280;55809;46.618;10.764;2024-01-30T01:57:02;94701.13;;;1.03;100.00
57248;BME280;55809;46.618;10.764;2024-01-30T01:59:30;94700.44;;;0.97;100.00
57248;BME280;55809;46.618;10.764;2024-01-30T02:01:57;94695.00;;;0.88;100.00
57248;BME280;55809;46.618;10.764;2024-01-30T02:04:23;94693.63;;;0.91;100.00
57248;BME280;55809;46.618;10.764;2024-01-30T02:06:51;94653.16;;;0.66;100.00
57248;BME280;55809;46.618;10.764;2024-01-30T02:09:19;94702.31;;;0.97;100.00
57248;BME280;55809;46.618;10.764;2024-01-30T02:11:46;94695.91;;;0.98;100.00
57248;BME280;55809;46.618;10.764;2024-01-30T02:14:13;94694.53;;;0.86;100.00
57248;BME280;55809;46.618;10.764;2024-01-30T02:16:40;94697.66;;;0.88;100.00
57248;BME280;55809;46.618;10.764;2024-01-30T02:19:07;94682.69;;;0.79;100.00
57248;BME280;55809;46.618;10.764;2024-01-30T02:21:42;94695.00;;;0.88;100.00
57248;BME280;55809;46.618;10.764;2024-01-30T02:24:09;94661.63;;;0.82;100.00
57248;BME280;55809;46.618;10.764;2024-01-30T02:26:36;94701.81;;;0.94;100.00
57248;BME280;55809;46.618;10.764;2024-01-30T02:29:02;94700.81;;;0.90;100.00
57248;BME280;55809;46.618;10.764;2024-01-30T02:31:29;94704.97;;;0.83;100.00
57248;BME280;55809;46.618;10.764;2024-01-30T02:33:57;94698.66;;;0.92;100.00
57248;BME280;55809;46.618;10.764;2024-01-30T02:36:23;94698.94;;;0.91;100.00
57248;BME280;55809;46.618;10.764;2024-01-30T02:38:52;94697.19;;;0.86;100.00
57248;BME280;55809;46.618;10.764;2024-01-30T02:41:18;94659.84;;;0.64;100.00
57248;BME280;55809;46.618;10.764;2024-01-30T02:43:45;94689.59;;;0.80;100.00
57248;BME280;55809;46.618;10.764;2024-01-30T02:46:12;94692.16;;;0.85;100.00
57248;BME280;55809;46.618;10.764;2024-01-30T02:48:39;94686.34;;;0.97;100.00
57248;BME280;55809;46.618;10.764;2024-01-30T02:51:06;94690.78;;;0.87;100.00
57248;BME280;55809;46.618;10.764;2024-01-30T02:53:33;94684.47;;;0.83;100.00
57248;BME280;55809;46.618;10.764;2024-01-30T02:56:02;94684.28;;;0.80;100.00
57248;BME280;55809;46.618;10.764;2024-01-30T02:58:28;94683.38;;;0.84;100.00
57248;BME280;55809;46.618;10.764;2024-01-30T03:00:55;94679.63;;;0.85;100.00
57248;BME280;55809;46.618;10.764;2024-01-30T03:03:22;94680.44;;;0.86;100.00
57248;BME280;55809;46.618;10.764;2024-01-30T03:05:49;94675.22;;;0.94;100.00
57248;BME280;55809;46.618;10.764;2024-01-30T03:08:16;94675.13;;;0.86;100.00
57248;BME280;55809;46.618;10.764;2024-01-30T03:10:43;94673.66;;;0.93;100.00
57248;BME280;55809;46.618;10.764;2024-01-30T03:13:11;94670.41;;;0.97;100.00
57248;BME280;55809;46.618;10.764;2024-01-30T03:15:38;94544.63;;;-0.01;100.00
57248;BME280;55809;46.618;10.764;2024-01-30T03:18:05;94661.63;;;0.82;100.00
57248;BME280;55809;46.618;10.764;2024-01-30T03:20:32;94666.16;;;0.82;100.00
57248;BME280;55809;46.618;10.764;2024-01-30T03:23:00;94670.59;;;0.86;100.00
57248;BME280;55809;46.618;10.764;2024-01-30T03:25:28;94660.44;;;0.88;100.00
57248;BME280;55809;46.618;10.764;2024-01-30T03:27:55;94663.50;;;0.82;100.00
57248;BME280;55809;46.618;10.764;2024-01-30T03:30:23;94668.78;;;0.68;100.00
57248;BME280;55809;46.618;10.764;2024-01-30T03:32:50;94659.91;;;0.59;100.00
57248;BME280;55809;46.618;10.764;2024-01-30T03:35:18;94664.16;;;0.60;100.00
57248;BME280;55809;46.618;10.764;2024-01-30T03:37:45;94667.22;;;0.67;100.00
57248;BME280;55809;46.618;10.764;2024-01-30T03:40:12;94664.75;;;0.70;100.00
57248;BME280;55809;46.618;10.764;2024-01-30T03:42:40;94654.00;;;0.62;100.00
57248;BME280;55809;46.618;10.764;2024-01-30T03:45:08;94653.03;;;0.58;100.00
57248;BME280;55809;46.618;10.764;2024-01-30T03:47:36;94654.91;;;0.57;100.00
57248;BME280;55809;46.618;10.764;2024-01-30T03:50:04;94657.63;;;0.52;100.00
57248;BME280;55809;46.618;10.764;2024-01-30T03:52:31;94658.94;;;0.55;100.00
57248;BME280;55809;46.618;10.764;2024-01-30T03:54:58;94662.91;;;0.71;100.00
57248;BME280;55809;46.618;10.764;2024-01-30T03:57:25;94652.66;;;0.78;100.00
57248;BME280;55809;46.618;10.764;2024-01-30T03:59:52;94658.38;;;0.85;100.00
57248;BME280;55809;46.618;10.764;2024-01-30T04:02:19;94658.88;;;0.87;100.00
57248;BME280;55809;46.618;10.764;2024-01-30T04:04:47;94650.44;;;0.99;100.00
57248;BME280;55809;46.618;10.764;2024-01-30T04:07:14;94629.13;;;0.85;100.00
57248;BME280;55809;46.618;10.764;2024-01-30T04:09:41;94653.28;;;1.16;100.00
57248;BME280;55809;46.618;10.764;2024-01-30T04:12:08;94607.97;;;0.80;100.00
57248;BME280;55809;46.618;10.764;2024-01-30T04:14:35;94654.44;;;1.24;100.00
57248;BME280;55809;46.618;10.764;2024-01-30T04:17:02;94627.56;;;0.84;100.00
57248;BME280;55809;46.618;10.764;2024-01-30T04:19:29;94655.13;;;0.88;100.00
57248;BME280;55809;46.618;10.764;2024-01-30T04:21:57;94657.50;;;0.76;100.00
57248;BME280;55809;46.618;10.764;2024-01-30T04:24:24;94653.03;;;0.72;100.00
57248;BME280;55809;46.618;10.764;2024-01-30T04:26:51;94653.44;;;0.79;100.00
57248;BME280;55809;46.618;10.764;2024-01-30T04:29:18;94645.31;;;0.89;100.00
57248;BME280;55809;46.618;10.764;2024-01-30T04:31:45;94634.06;;;0.64;100.00
57248;BME280;55809;46.618;10.764;2024-01-30T04:34:12;94651.47;;;0.70;100.00
57248;BME280;55809;46.618;10.764;2024-01-30T04:36:39;94652.16;;;0.62;100.00
57248;BME280;55809;46.618;10.764;2024-01-30T04:39:07;94569.97;;;-0.08;100.00
57248;BME280;55809;46.618;10.764;2024-01-30T04:41:34;94641.88;;;0.42;100.00
57248;BME280;55809;46.618;10.764;2024-01-30T04:44:01;94643.75;;;0.41;100.00
57248;BME280;55809;46.618;10.764;2024-01-30T04:46:28;94653.97;;;0.34;100.00
57248;BME280;55809;46.618;10.764;2024-01-30T04:48:55;94504.31;;;-0.68;100.00
57248;BME280;55809;46.618;10.764;2024-01-30T04:51:22;94656.41;;;0.31;100.00
57248;BME280;55809;46.618;10.764;2024-01-30T04:53:49;94658.78;;;0.32;100.00
57248;BME280;55809;46.618;10.764;2024-01-30T04:56:17;94660.38;;;0.33;100.00
57248;BME280;55809;46.618;10.764;2024-01-30T04:58:44;94625.09;;;0.14;100.00
57248;BME280;55809;46.618;10.764;2024-01-30T05:01:15;94660.97;;;0.44;100.00
57248;BME280;55809;46.618;10.764;2024-01-30T05:03:41;94659.09;;;0.44;100.00
57248;BME280;55809;46.618;10.764;2024-01-30T05:06:08;94659.56;;;0.33;100.00
57248;BME280;55809;46.618;10.764;2024-01-30T05:08:35;94656.41;;;0.31;100.00
57248;BME280;55809;46.618;10.764;2024-01-30T05:11:04;94544.72;;;-0.38;100.00
57248;BME280;55809;46.618;10.764;2024-01-30T05:13:33;94653.88;;;0.39;100.00
57248;BME280;55809;46.618;10.764;2024-01-30T05:16:02;94653.38;;;0.37;100.00
57248;BME280;55809;46.618;10.764;2024-01-30T05:18:29;94664.09;;;0.32;100.00
57248;BME280;55809;46.618;10.764;2024-01-30T05:20:56;94667.31;;;0.29;100.00
57248;BME280;55809;46.618;10.764;2024-01-30T05:23:22;94645.66;;;0.22;100.00
57248;BME280;55809;46.618;10.764;2024-01-30T05:25:49;94665.75;;;0.28;100.00
57248;BME280;55809;46.618;10.764;2024-01-30T05:28:16;94668.03;;;0.35;100.00
57248;BME280;55809;46.618;10.764;2024-01-30T05:30:45;94673.91;;;0.32;100.00
57248;BME280;55809;46.618;10.764;2024-01-30T05:33:11;94677.94;;;0.29;100.00
57248;BME280;55809;46.618;10.764;2024-01-30T05:35:38;94583.16;;;-0.36;100.00
57248;BME280;55809;46.618;10.764;2024-01-30T05:38:05;94672.59;;;0.15;100.00
57248;BME280;55809;46.618;10.764;2024-01-30T05:40:32;94671.78;;;0.15;100.00
57248;BME280;55809;46.618;10.764;2024-01-30T05:42:59;94667.69;;;0.22;100.00
57248;BME280;55809;46.618;10.764;2024-01-30T05:45:28;94586.50;;;-0.30;100.00
57248;BME280;55809;46.618;10.764;2024-01-30T05:47:56;94677.34;;;0.32;100.00
57248;BME280;55809;46.618;10.764;2024-01-30T05:50:23;94667.41;;;0.24;100.00
57248;BME280;55809;46.618;10.764;2024-01-30T05:52:51;94674.66;;;0.18;100.00
57248;BME280;55809;46.618;10.764;2024-01-30T05:55:18;94674.09;;;0.21;100.00
57248;BME280;55809;46.618;10.764;2024-01-30T05:57:45;94673.44;;;0.30;100.00
57248;BME280;55809;46.618;10.764;2024-01-30T06:00:13;94675.84;;;0.26;100.00
57248;BME280;55809;46.618;10.764;2024-01-30T06:02:40;94664.56;;;0.20;100.00
57248;BME280;55809;46.618;10.764;2024-01-30T06:05:08;94683.63;;;0.22;100.00
57248;BME280;55809;46.618;10.764;2024-01-30T06:07:35;94686.66;;;0.16;100.00
57248;BME280;55809;46.618;10.764;2024-01-30T06:10:03;94677.91;;;0.15;100.00
57248;BME280;55809;46.618;10.764;2024-01-30T06:12:30;94672.31;;;0.17;100.00
57248;BME280;55809;46.618;10.764;2024-01-30T06:14:56;94671.72;;;0.20;100.00
57248;BME280;55809;46.618;10.764;2024-01-30T06:17:23;94661.47;;;0.13;100.00
57248;BME280;55809;46.618;10.764;2024-01-30T06:19:50;94674.03;;;0.08;100.00
57248;BME280;55809;46.618;10.764;2024-01-30T06:22:18;94669.81;;;0.07;100.00
57248;BME280;55809;46.618;10.764;2024-01-30T06:24:45;94643.69;;;-0.05;100.00
57248;BME280;55809;46.618;10.764;2024-01-30T06:27:14;94581.22;;;-0.49;100.00
57248;BME280;55809;46.618;10.764;2024-01-30T06:29:41;94582.84;;;-0.53;100.00
57248;BME280;55809;46.618;10.764;2024-01-30T06:32:09;94668.63;;;0.13;100.00
57248;BME280;55809;46.618;10.764;2024-01-30T06:34:36;94678.06;;;0.05;100.00
57248;BME280;55809;46.618;10.764;2024-01-30T06:37:04;94678.84;;;0.06;100.00
57248;BME280;55809;46.618;10.764;2024-01-30T06:39:32;94684.16;;;0.06;100.00
57248;BME280;55809;46.618;10.764;2024-01-30T06:41:59;94685.28;;;-0.01;100.00
57248;BME280;55809;46.618;10.764;2024-01-30T06:44:26;94685.03;;;0.01;100.00
57248;BME280;55809;46.618;10.764;2024-01-30T06:46:53;94616.97;;;-0.47;100.00
57248;BME280;55809;46.618;10.764;2024-01-30T06:49:20;94689.47;;;-0.13;100.00
57248;BME280;55809;46.618;10.764;2024-01-30T06:51:48;94683.38;;;-0.14;100.00
57248;BME280;55809;46.618;10.764;2024-01-30T06:54:15;94693.91;;;-0.09;100.00
57248;BME280;55809;46.618;10.764;2024-01-30T06:56:43;94694.84;;;0.01;100.00
57248;BME280;55809;46.618;10.764;2024-01-30T06:59:10;94690.75;;;0.08;100.00
57248;BME280;55809;46.618;10.764;2024-01-30T07:01:37;94696.28;;;0.12;100.00
57248;BME280;55809;46.618;10.764;2024-01-30T07:04:04;94594.38;;;-0.63;100.00
57248;BME280;55809;46.618;10.764;2024-01-30T07:06:30;94698.41;;;0.10;100.00
57248;BME280;55809;46.618;10.764;2024-01-30T07:08:57;94701.38;;;0.08;100.00
57248;BME280;55809;46.618;10.764;2024-01-30T07:11:24;94652.34;;;-0.32;100.00
57248;BME280;55809;46.618;10.764;2024-01-30T07:13:53;94640.94;;;-0.52;100.00
57248;BME280;55809;46.618;10.764;2024-01-30T07:16:20;94697.06;;;-0.07;100.00
57248;BME280;55809;46.618;10.764;2024-01-30T07:18:47;94704.38;;;0.02;100.00
57248;BME280;55809;46.618;10.764;2024-01-30T07:21:15;94705.09;;;0.07;100.00
57248;BME280;55809;46.618;10.764;2024-01-30T07:23:42;94706.81;;;0.17;100.00
57248;BME280;55809;46.618;10.764;2024-01-30T07:26:09;94716.88;;;0.20;100.00
57248;BME280;55809;46.618;10.764;2024-01-30T07:28:36;94718.34;;;0.26;100.00
57248;BME280;55809;46.618;10.764;2024-01-30T07:31:04;94705.16;;;0.21;100.00
57248;BME280;55809;46.618;10.764;2024-01-30T07:33:31;94691.94;;;0.16;100.00
57248;BME280;55809;46.618;10.764;2024-01-30T07:35:58;94723.59;;;0.31;100.00
57248;BME280;55809;46.618;10.764;2024-01-30T07:38:25;94709.50;;;0.50;100.00
57248;BME280;55809;46.618;10.764;2024-01-30T07:40:52;94708.59;;;0.40;100.00
57248;BME280;55809;46.618;10.764;2024-01-30T07:43:19;94708.50;;;0.45;100.00
57248;BME280;55809;46.618;10.764;2024-01-30T07:45:46;94709.97;;;0.52;100.00
57248;BME280;55809;46.618;10.764;2024-01-30T07:48:14;94698.88;;;0.50;100.00
57248;BME280;55809;46.618;10.764;2024-01-30T07:50:41;94709.06;;;0.42;100.00
57248;BME280;55809;46.618;10.764;2024-01-30T07:53:08;94717.84;;;0.43;100.00
57248;BME280;55809;46.618;10.764;2024-01-30T07:55:35;94716.03;;;0.38;100.00
57248;BME280;55809;46.618;10.764;2024-01-30T07:58:02;94721.66;;;0.37;100.00
57248;BME280;55809;46.618;10.764;2024-01-30T08:00:30;94722.81;;;0.31;100.00
57248;BME280;55809;46.618;10.764;2024-01-30T08:02:57;94722.31;;;0.29;100.00
57248;BME280;55809;46.618;10.764;2024-01-30T08:05:25;94725.94;;;0.33;100.00
57248;BME280;55809;46.618;10.764;2024-01-30T08:07:52;94721.34;;;0.38;100.00
57248;BME280;55809;46.618;10.764;2024-01-30T08:10:20;94721.50;;;0.28;100.00
57248;BME280;55809;46.618;10.764;2024-01-30T08:12:47;94721.72;;;0.32;100.00
57248;BME280;55809;46.618;10.764;2024-01-30T08:15:14;94730.97;;;0.34;100.00
57248;BME280;55809;46.618;10.764;2024-01-30T08:17:40;94721.44;;;0.33;100.00
57248;BME280;55809;46.618;10.764;2024-01-30T08:20:08;94715.78;;;0.40;100.00
57248;BME280;55809;46.618;10.764;2024-01-30T08:22:38;94723.63;;;0.45;100.00
57248;BME280;55809;46.618;10.764;2024-01-30T08:25:05;94720.00;;;0.41;100.00
57248;BME280;55809;46.618;10.764;2024-01-30T08:27:33;94681.88;;;0.32;100.00
57248;BME280;55809;46.618;10.764;2024-01-30T08:30:01;94687.00;;;0.75;100.00
57248;BME280;55809;46.618;10.764;2024-01-30T08:32:28;94705.97;;;1.42;100.00
57248;BME280;55809;46.618;10.764;2024-01-30T08:34:54;94709.53;;;1.87;100.00
57248;BME280;55809;46.618;10.764;2024-01-30T08:37:21;94707.56;;;2.29;100.00
57248;BME280;55809;46.618;10.764;2024-01-30T08:39:49;94705.88;;;2.56;100.00
57248;BME280;55809;46.618;10.764;2024-01-30T08:42:16;94703.88;;;2.93;100.00
57248;BME280;55809;46.618;10.764;2024-01-30T08:44:47;94706.28;;;3.34;100.00
57248;BME280;55809;46.618;10.764;2024-01-30T08:47:15;94699.25;;;3.47;100.00
57248;BME280;55809;46.618;10.764;2024-01-30T08:49:43;94701.19;;;3.64;100.00
57248;BME280;55809;46.618;10.764;2024-01-30T08:52:10;94701.84;;;3.78;100.00
57248;BME280;55809;46.618;10.764;2024-01-30T08:54:37;94693.53;;;3.80;100.00
57248;BME280;55809;46.618;10.764;2024-01-30T08:57:06;94693.41;;;4.02;100.00
57248;BME280;55809;46.618;10.764;2024-01-30T08:59:33;94693.72;;;4.27;100.00
57248;BME280;55809;46.618;10.764;2024-01-30T09:02:00;94697.63;;;4.46;100.00
57248;BME280;55809;46.618;10.764;2024-01-30T09:04:28;94683.13;;;4.74;100.00
57248;BME280;55809;46.618;10.764;2024-01-30T09:06:54;94693.97;;;4.94;100.00
57248;BME280;55809;46.618;10.764;2024-01-30T09:09:22;94687.69;;;4.90;100.00
57248;BME280;55809;46.618;10.764;2024-01-30T09:11:48;94640.84;;;4.58;100.00
57248;BME280;55809;46.618;10.764;2024-01-30T09:14:17;94692.63;;;5.09;100.00
57248;BME280;55809;46.618;10.764;2024-01-30T09:16:44;94683.53;;;5.02;100.00
57248;BME280;55809;46.618;10.764;2024-01-30T09:19:11;94693.91;;;5.03;100.00
57248;BME280;55809;46.618;10.764;2024-01-30T09:21:38;94683.34;;;5.15;100.00
57248;BME280;55809;46.618;10.764;2024-01-30T09:24:06;94691.28;;;5.33;100.00
57248;BME280;55809;46.618;10.764;2024-01-30T09:26:33;94682.56;;;5.53;100.00
57248;BME280;55809;46.618;10.764;2024-01-30T09:28:59;94684.94;;;5.76;100.00
57248;BME280;55809;46.618;10.764;2024-01-30T09:31:28;94680.09;;;5.99;100.00
57248;BME280;55809;46.618;10.764;2024-01-30T09:33:55;94686.72;;;6.22;100.00
57248;BME280;55809;46.618;10.764;2024-01-30T09:36:22;94684.22;;;6.38;100.00
57248;BME280;55809;46.618;10.764;2024-01-30T09:38:49;94684.22;;;6.59;100.00
57248;BME280;55809;46.618;10.764;2024-01-30T09:41:18;94691.19;;;6.72;100.00
57248;BME280;55809;46.618;10.764;2024-01-30T09:43:47;94690.91;;;6.86;100.00
57248;BME280;55809;46.618;10.764;2024-01-30T09:46:16;94687.13;;;6.99;100.00
57248;BME280;55809;46.618;10.764;2024-01-30T09:48:46;94685.25;;;7.12;100.00
57248;BME280;55809;46.618;10.764;2024-01-30T09:51:15;94675.91;;;7.31;100.00
57248;BME280;55809;46.618;10.764;2024-01-30T09:53:42;94675.91;;;7.43;100.00
57248;BME280;55809;46.618;10.764;2024-01-30T09:56:10;94677.13;;;7.45;100.00
57248;BME280;55809;46.618;10.764;2024-01-30T09:58:38;94673.56;;;7.41;100.00
57248;BME280;55809;46.618;10.764;2024-01-30T10:01:06;94648.00;;;7.23;100.00
57248;BME280;55809;46.618;10.764;2024-01-30T10:03:33;94677.59;;;7.47;100.00
57248;BME280;55809;46.618;10.764;2024-01-30T10:06:01;94679.38;;;7.43;100.00
57248;BME280;55809;46.618;10.764;2024-01-30T10:08:29;94682.94;;;7.60;100.00
57248;BME280;55809;46.618;10.764;2024-01-30T10:10:56;94678.72;;;7.71;100.00
57248;BME280;55809;46.618;10.764;2024-01-30T10:13:23;94676.34;;;7.69;100.00
57248;BME280;55809;46.618;10.764;2024-01-30T10:15:50;94551.56;;;7.05;100.00
57248;BME280;55809;46.618;10.764;2024-01-30T10:18:17;94672.19;;;7.96;100.00
57248;BME280;55809;46.618;10.764;2024-01-30T10:20:45;94669.41;;;7.81;100.00
57248;BME280;55809;46.618;10.764;2024-01-30T10:23:14;94662.78;;;7.90;100.00
57248;BME280;55809;46.618;10.764;2024-01-30T10:25:41;94664.34;;;8.04;100.00
57248;BME280;55809;46.618;10.764;2024-01-30T10:28:08;94673.84;;;8.13;100.00
57248;BME280;55809;46.618;10.764;2024-01-30T10:30:35;94666.09;;;8.24;100.00
57248;BME280;55809;46.618;10.764;2024-01-30T10:33:03;94599.16;;;7.94;100.00
57248;BME280;55809;46.618;10.764;2024-01-30T10:35:30;94652.47;;;8.45;100.00
57248;BME280;55809;46.618;10.764;2024-01-30T10:37:57;94652.56;;;8.49;100.00
57248;BME280;55809;46.618;10.764;2024-01-30T10:40:28;94644.66;;;8.40;100.00
57248;BME280;55809;46.618;10.764;2024-01-30T10:42:55;94637.25;;;8.37;100.00
57248;BME280;55809;46.618;10.764;2024-01-30T10:45:23;94630.44;;;8.39;100.00
57248;BME280;55809;46.618;10.764;2024-01-30T10:47:55;94619.31;;;8.41;100.00
57248;BME280;55809;46.618;10.764;2024-01-30T10:50:24;94534.16;;;7.64;100.00
57248;BME280;55809;46.618;10.764;2024-01-30T10:52:52;94619.03;;;8.18;100.00
57248;BME280;55809;46.618;10.764;2024-01-30T10:55:21;94618.16;;;8.02;100.00
57248;BME280;55809;46.618;10.764;2024-01-30T10:57:50;94618.19;;;7.89;100.00
57248;BME280;55809;46.618;10.764;2024-01-30T11:00:17;94610.16;;;7.77;100.00
57248;BME280;55809;46.618;10.764;2024-01-30T11:02:49;94608.38;;;7.57;100.00
57248;BME280;55809;46.618;10.764;2024-01-30T11:05:23;94605.22;;;7.79;100.00
57248;BME280;55809;46.618;10.764;2024-01-30T11:07:51;94608.38;;;7.69;100.00
57248;BME280;55809;46.618;10.764;2024-01-30T11:10:18;94600.31;;;7.81;100.00
57248;BME280;55809;46.618;10.764;2024-01-30T11:12:46;94604.06;;;8.05;100.00
57248;BME280;55809;46.618;10.764;2024-01-30T11:15:15;94598.25;;;8.31;100.00
57248;BME280;55809;46.618;10.764;2024-01-30T11:17:44;94577.25;;;8.08;100.00
57248;BME280;55809;46.618;10.764;2024-01-30T11:20:12;94595.19;;;8.32;100.00
57248;BME280;55809;46.618;10.764;2024-01-30T11:22:44;94570.66;;;8.34;100.00
57248;BME280;55809;46.618;10.764;2024-01-30T11:25:13;94511.72;;;7.72;100.00
57248;BME280;55809;46.618;10.764;2024-01-30T11:27:41;94586.41;;;8.19;100.00
57248;BME280;55809;46.618;10.764;2024-01-30T11:30:08;94576.38;;;8.32;100.00
57248;BME280;55809;46.618;10.764;2024-01-30T11:32:37;94557.22;;;8.34;100.00
57248;BME280;55809;46.618;10.764;2024-01-30T11:35:05;94569.00;;;8.57;100.00
57248;BME280;55809;46.618;10.764;2024-01-30T11:37:36;94567.44;;;8.28;100.00
57248;BME280;55809;46.618;10.764;2024-01-30T11:40:05;94570.09;;;8.40;100.00
57248;BME280;55809;46.618;10.764;2024-01-30T11:42:32;94447.47;;;7.39;100.00
57248;BME280;55809;46.618;10.764;2024-01-30T11:45:00;94414.81;;;7.37;100.00
57248;BME280;55809;46.618;10.764;2024-01-30T11:47:29;94558.25;;;8.29;100.00
57248;BME280;55809;46.618;10.764;2024-01-30T11:49:57;94563.03;;;8.36;100.00
57248;BME280;55809;46.618;10.764;2024-01-30T11:52:24;94554.91;;;8.48;100.00
57248;BME280;55809;46.618;10.764;2024-01-30T11:54:51;94560.13;;;8.41;100.00
57248;BME280;55809;46.618;10.764;2024-01-30T11:57:18;94498.91;;;7.94;100.00
57248;BME280;55809;46.618;10.764;2024-01-30T11:59:45;94556.28;;;8.42;100.00
57248;BME280;55809;46.618;10.764;2024-01-30T12:02:15;94558.75;;;8.47;100.00
57248;BME280;55809;46.618;10.764;2024-01-30T12:04:42;94550.97;;;8.30;100.00
57248;BME280;55809;46.618;10.764;2024-01-30T12:07:11;94549.78;;;8.15;100.00
57248;BME280;55809;46.618;10.764;2024-01-30T12:09:38;94548.91;;;8.11;100.00
57248;BME280;55809;46.618;10.764;2024-01-30T12:12:07;94537.19;;;8.19;100.00
57248;BME280;55809;46.618;10.764;2024-01-30T12:14:37;94536.59;;;8.26;100.00
57248;BME280;55809;46.618;10.764;2024-01-30T12:17:04;94535.06;;;8.25;100.00
57248;BME280;55809;46.618;10.764;2024-01-30T12:19:33;94381.50;;;7.14;100.00
57248;BME280;55809;46.618;10.764;2024-01-30T12:22:00;94439.41;;;7.39;100.00
57248;BME280;55809;46.618;10.764;2024-01-30T12:24:28;94518.97;;;8.12;100.00
57248;BME280;55809;46.618;10.764;2024-01-30T12:26:57;94514.06;;;8.30;100.00
57248;BME280;55809;46.618;10.764;2024-01-30T12:29:24;94460.84;;;8.08;100.00
57248;BME280;55809;46.618;10.764;2024-01-30T12:31:53;94435.38;;;7.73;100.00
57248;BME280;55809;46.618;10.764;2024-01-30T12:34:20;94498.25;;;8.29;100.00
57248;BME280;55809;46.618;10.764;2024-01-30T12:36:47;94500.03;;;8.37;100.00
57248;BME280;55809;46.618;10.764;2024-01-30T12:39:15;94358.09;;;7.55;100.00
57248;BME280;55809;46.618;10.764;2024-01-30T12:41:43;94493.38;;;8.47;100.00
57248;BME280;55809;46.618;10.764;2024-01-30T12:44:10;94463.50;;;8.36;100.00
57248;BME280;55809;46.618;10.764;2024-01-30T12:46:37;94485.41;;;8.50;100.00
57248;BME280;55809;46.618;10.764;2024-01-30T12:49:04;94484.72;;;8.53;100.00
57248;BME280;55809;46.618;10.764;2024-01-30T12:51:34;94476.72;;;8.41;100.00